sensor_id;sensor_type;location;lat;lon;timestamp;temperature;humidity
11239;DHT22;5677;48.488;13.436;2024-03-23T00:52:04;12.30;53.80
11239;DHT22;5677;48.488;13.436;2024-03-23T00:54:30;12.30;54.00
11239;DHT22;5677;48.488;13.436;2024-03-23T00:56:56;12.30;54.10
11239;DHT22;5677;48.488;13.436;2024-03-23T00:59:23;12.30;54.20
11239;DHT22;5677;48.488;13.436;2024-03-23T01:01:52;12.30;54.30
11239;DHT22;5677;48.488;13.436;2024-03-23T01:04:19;12.20;54.20
11239;DHT22;5677;48.488;13.436;2024-03-23T01:06:45;12.20;54.40
11239;DHT22;5677;48.488;13.436;2024-03-23T01:09:13;12.20;54.50
11239;DHT22;5677;48.488;13.436;2024-03-23T01:11:39;12.20;54.60
11239;DHT22;5677;48.488;13.436;2024-03-23T01:14:06;12.30;54.70
11239;DHT22;5677;48.488;13.436;2024-03-23T01:16:32;12.30;55.00
11239;DHT22;5677;48.488;13.436;2024-03-23T01:18:59;12.30;55.20
11239;DHT22;5677;48.488;13.436;2024-03-23T01:21:24;12.30;55.40
11239;DHT22;5677;48.488;13.436;2024-03-23T01:23:51;12.30;55.60
11239;DHT22;5677;48.488;13.436;2024-03-23T01:26:18;12.30;55.70
11239;DHT22;5677;48.488;13.436;2024-03-23T01:28:45;12.30;56.20
11239;DHT22;5677;48.488;13.436;2024-03-23T01:31:11;12.30;57.10
11239;DHT22;5677;48.488;13.436;2024-03-23T01:33:37;12.30;59.20
11239;DHT22;5677;48.488;13.436;2024-03-23T01:36:04;12.30;63.60
11239;DHT22;5677;48.488;13.436;2024-03-23T01:38:30;12.30;60.20
11239;DHT22;5677;48.488;13.436;2024-03-23T01:40:57;12.30;60.10
11239;DHT22;5677;48.488;13.436;2024-03-23T01:43:25;12.30;77.10
11239;DHT22;5677;48.488;13.436;2024-03-23T01:45:51;12.30;57.10
11239;DHT22;5677;48.488;13.436;2024-03-23T01:48:19;12.30;55.90
11239;DHT22;5677;48.488;13.436;2024-03-23T01:50:45;12.30;55.30
11239;DHT22;5677;48.488;13.436;2024-03-23T01:53:14;12.30;54.80
11239;DHT22;5677;48.488;13.436;2024-03-23T01:55:42;12.20;54.80
11239;DHT22;5677;48.488;13.436;2024-03-23T01:58:09;12.20;54.40
11239;DHT22;5677;48.488;13.436;2024-03-23T02:00:36;12.20;54.10
11239;DHT22;5677;48.488;13.436;2024-03-23T02:03:22;12.20;54.00
11239;DHT22;5677;48.488;13.436;2024-03-23T02:05:48;12.20;54.00
11239;DHT22;5677;48.488;13.436;2024-03-23T02:08:16;12.20;53.40
11239;DHT22;5677;48.488;13.436;2024-03-23T02:10:42;12.20;53.20
11239;DHT22;5677;48.488;13.436;2024-03-23T02:13:09;12.20;53.30
11239;DHT22;5677;48.488;13.436;2024-03-23T02:15:36;12.20;52.90
11239;DHT22;5677;48.488;13.436;2024-03-23T02:18:03;12.20;52.70
11239;DHT22;5677;48.488;13.436;2024-03-23T02:20:29;12.20;52.60
11239;DHT22;5677;48.488;13.436;2024-03-23T02:22:57;12.20;52.50
11239;DHT22;5677;48.488;13.436;2024-03-23T02:25:23;12.20;52.30
11239;DHT22;5677;48.488;13.436;2024-03-23T02:27:50;12.20;52.30
11239;DHT22;5677;48.488;13.436;2024-03-23T02:30:16;12.20;52.30
11239;DHT22;5677;48.488;13.436;2024-03-23T02:32:42;12.20;52.10
11239;DHT22;5677;48.488;13.436;2024-03-23T02:35:08;12.20;52.00
11239;DHT22;5677;48.488;13.436;2024-03-23T02:37:35;12.20;51.80
11239;DHT22;5677;48.488;13.436;2024-03-23T02:40:02;12.20;51.90
11239;DHT22;5677;48.488;13.436;2024-03-23T02:42:30;12.20;51.80
11239;DHT22;5677;48.488;13.436;2024-03-23T02:44:56;12.20;51.70
11239;DHT22;5677;48.488;13.436;2024-03-23T02:47:23;12.20;51.70
11239;DHT22;5677;48.488;13.436;2024-03-23T02:49:49;12.20;51.60
11239;DHT22;5677;48.488;13.436;2024-03-23T02:52:16;12.20;51.70
11239;DHT22;5677;48.488;13.436;2024-03-23T02:54:41;12.20;51.50
11239;DHT22;5677;48.488;13.436;2024-03-23T02:57:11;12.20;51.40
11239;DHT22;5677;48.488;13.436;2024-03-23T02:59:37;12.20;51.40
11239;DHT22;5677;48.488;13.436;2024-03-23T03:02:04;12.20;51.50
11239;DHT22;5677;48.488;13.436;2024-03-23T03:04:30;12.20;51.40
11239;DHT22;5677;48.488;13.436;2024-03-23T03:06:57;12.20;51.40
11239;DHT22;5677;48.488;13.436;2024-03-23T03:09:23;12.20;51.40
11239;DHT22;5677;48.488;13.436;2024-03-23T03:11:49;12.10;51.40
11239;DHT22;5677;48.488;13.436;2024-03-23T03:14:16;12.20;51.30
11239;DHT22;5677;48.488;13.436;2024-03-23T03:16:43;12.20;51.30
11239;DHT22;5677;48.488;13.436;2024-03-23T03:19:09;12.20;51.30
11239;DHT22;5677;48.488;13.436;2024-03-23T03:21:36;12.10;51.30
11239;DHT22;5677;48.488;13.436;2024-03-23T03:24:02;12.10;51.40
11239;DHT22;5677;48.488;13.436;2024-03-23T03:26:29;12.10;51.40
11239;DHT22;5677;48.488;13.436;2024-03-23T03:28:55;12.20;51.50
11239;DHT22;5677;48.488;13.436;2024-03-23T03:31:23;12.10;51.50
11239;DHT22;5677;48.488;13.436;2024-03-23T03:33:50;12.20;51.40
11239;DHT22;5677;48.488;13.436;2024-03-23T03:36:17;12.10;51.50
11239;DHT22;5677;48.488;13.436;2024-03-23T03:38:43;12.10;52.10
11239;DHT22;5677;48.488;13.436;2024-03-23T03:41:09;12.10;51.50
11239;DHT22;5677;48.488;13.436;2024-03-23T03:43:35;12.10;51.40
11239;DHT22;5677;48.488;13.436;2024-03-23T03:46:02;12.10;51.50
11239;DHT22;5677;48.488;13.436;2024-03-23T03:48:30;12.10;51.50
11239;DHT22;5677;48.488;13.436;2024-03-23T03:50:56;12.10;51.50
11239;DHT22;5677;48.488;13.436;2024-03-23T03:53:22;12.10;51.50
11239;DHT22;5677;48.488;13.436;2024-03-23T03:55:49;12.10;51.50
11239;DHT22;5677;48.488;13.436;2024-03-23T03:58:15;12.10;51.60
11239;DHT22;5677;48.488;13.436;2024-03-23T04:00:41;12.10;51.50
11239;DHT22;5677;48.488;13.436;2024-03-23T04:03:07;12.10;51.50
11239;DHT22;5677;48.488;13.436;2024-03-23T04:05:35;12.10;51.50
11239;DHT22;5677;48.488;13.436;2024-03-23T04:08:01;12.10;51.50
11239;DHT22;5677;48.488;13.436;2024-03-23T04:10:28;12.10;51.60
11239;DHT22;5677;48.488;13.436;2024-03-23T04:12:54;12.10;51.50
11239;DHT22;5677;48.488;13.436;2024-03-23T04:15:20;12.10;51.60
11239;DHT22;5677;48.488;13.436;2024-03-23T04:17:46;12.10;51.50
11239;DHT22;5677;48.488;13.436;2024-03-23T04:20:13;12.10;51.50
11239;DHT22;5677;48.488;13.436;2024-03-23T04:22:43;12.10;51.50
11239;DHT22;5677;48.488;13.436;2024-03-23T04:25:10;12.10;51.60
11239;DHT22;5677;48.488;13.436;2024-03-23T04:27:36;12.10;51.50
11239;DHT22;5677;48.488;13.436;2024-03-23T04:30:05;12.10;51.50
11239;DHT22;5677;48.488;13.436;2024-03-23T04:32:35;12.10;51.40
11239;DHT22;5677;48.488;13.436;2024-03-23T04:35:02;12.10;51.50
11239;DHT22;5677;48.488;13.436;2024-03-23T04:37:28;12.10;52.10
11239;DHT22;5677;48.488;13.436;2024-03-23T04:39:56;12.10;51.50
11239;DHT22;5677;48.488;13.436;2024-03-23T04:42:23;12.10;51.50
11239;DHT22;5677;48.488;13.436;2024-03-23T04:44:50;12.10;51.50
11239;DHT22;5677;48.488;13.436;2024-03-23T04:47:17;12.10;51.40
11239;DHT22;5677;48.488;13.436;2024-03-23T04:49:43;12.10;51.40
11239;DHT22;5677;48.488;13.436;2024-03-23T04:52:10;12.10;51.40
11239;DHT22;5677;48.488;13.436;2024-03-23T04:54:37;12.10;51.30
11239;DHT22;5677;48.488;13.436;2024-03-23T04:57:07;12.10;51.30
11239;DHT22;5677;48.488;13.436;2024-03-23T04:59:34;12.10;51.20
11239;DHT22;5677;48.488;13.436;2024-03-23T05:02:00;12.00;51.20
11239;DHT22;5677;48.488;13.436;2024-03-23T05:04:27;12.00;51.20
11239;DHT22;5677;48.488;13.436;2024-03-23T05:06:53;12.00;51.20
11239;DHT22;5677;48.488;13.436;2024-03-23T05:09:20;12.00;51.20
11239;DHT22;5677;48.488;13.436;2024-03-23T05:11:46;12.00;51.20
11239;DHT22;5677;48.488;13.436;2024-03-23T05:14:15;12.00;51.20
11239;DHT22;5677;48.488;13.436;2024-03-23T05:16:41;12.00;51.20
11239;DHT22;5677;48.488;13.436;2024-03-23T05:19:08;12.00;51.30
11239;DHT22;5677;48.488;13.436;2024-03-23T05:21:33;12.00;51.30
11239;DHT22;5677;48.488;13.436;2024-03-23T05:24:00;12.00;51.30
11239;DHT22;5677;48.488;13.436;2024-03-23T05:26:26;12.00;51.30
11239;DHT22;5677;48.488;13.436;2024-03-23T05:28:53;12.00;51.20
11239;DHT22;5677;48.488;13.436;2024-03-23T05:31:27;12.00;51.20
11239;DHT22;5677;48.488;13.436;2024-03-23T05:33:54;12.00;51.80
11239;DHT22;5677;48.488;13.436;2024-03-23T05:36:20;12.00;51.10
11239;DHT22;5677;48.488;13.436;2024-03-23T05:38:47;12.00;51.10
11239;DHT22;5677;48.488;13.436;2024-03-23T05:41:13;12.00;51.00
11239;DHT22;5677;48.488;13.436;2024-03-23T05:43:40;12.00;51.10
11239;DHT22;5677;48.488;13.436;2024-03-23T05:46:06;12.00;51.00
11239;DHT22;5677;48.488;13.436;2024-03-23T05:48:34;12.00;51.10
11239;DHT22;5677;48.488;13.436;2024-03-23T05:51:00;12.00;51.00
11239;DHT22;5677;48.488;13.436;2024-03-23T05:53:27;12.10;51.10
11239;DHT22;5677;48.488;13.436;2024-03-23T05:56:00;12.10;51.10
11239;DHT22;5677;48.488;13.436;2024-03-23T05:58:29;12.10;51.00
11239;DHT22;5677;48.488;13.436;2024-03-23T06:00:57;12.10;51.00
11239;DHT22;5677;48.488;13.436;2024-03-23T06:03:25;12.10;51.00
11239;DHT22;5677;48.488;13.436;2024-03-23T06:05:52;12.10;51.00
11239;DHT22;5677;48.488;13.436;2024-03-23T06:08:19;12.10;50.90
11239;DHT22;5677;48.488;13.436;2024-03-23T06:10:45;12.10;50.90
11239;DHT22;5677;48.488;13.436;2024-03-23T06:13:12;12.10;50.90
11239;DHT22;5677;48.488;13.436;2024-03-23T06:15:39;12.10;50.80
11239;DHT22;5677;48.488;13.436;2024-03-23T06:18:05;12.10;50.90
11239;DHT22;5677;48.488;13.436;2024-03-23T06:20:33;12.10;50.90
11239;DHT22;5677;48.488;13.436;2024-03-23T06:23:01;12.20;50.80
11239;DHT22;5677;48.488;13.436;2024-03-23T06:25:27;12.20;50.70
11239;DHT22;5677;48.488;13.436;2024-03-23T06:27:53;12.20;50.70
11239;DHT22;5677;48.488;13.436;2024-03-23T06:30:20;12.30;50.70
11239;DHT22;5677;48.488;13.436;2024-03-23T06:32:46;12.30;50.70
11239;DHT22;5677;48.488;13.436;2024-03-23T06:35:13;12.30;50.60
11239;DHT22;5677;48.488;13.436;2024-03-23T06:37:38;12.40;50.50
11239;DHT22;5677;48.488;13.436;2024-03-23T06:40:08;12.40;50.40
11239;DHT22;5677;48.488;13.436;2024-03-23T06:42:35;12.50;50.40
11239;DHT22;5677;48.488;13.436;2024-03-23T06:45:02;12.50;50.20
11239;DHT22;5677;48.488;13.436;2024-03-23T06:47:29;12.60;50.20
11239;DHT22;5677;48.488;13.436;2024-03-23T06:49:55;12.60;50.00
11239;DHT22;5677;48.488;13.436;2024-03-23T06:52:21;12.70;50.00
11239;DHT22;5677;48.488;13.436;2024-03-23T06:54:48;12.70;49.90
11239;DHT22;5677;48.488;13.436;2024-03-23T06:57:15;12.70;49.70
11239;DHT22;5677;48.488;13.436;2024-03-23T06:59:42;12.80;49.60
11239;DHT22;5677;48.488;13.436;2024-03-23T07:02:08;12.80;49.50
11239;DHT22;5677;48.488;13.436;2024-03-23T07:04:35;12.90;49.50
11239;DHT22;5677;48.488;13.436;2024-03-23T07:07:01;12.90;49.40
11239;DHT22;5677;48.488;13.436;2024-03-23T07:09:28;12.90;49.50
11239;DHT22;5677;48.488;13.436;2024-03-23T07:11:54;12.90;49.50
11239;DHT22;5677;48.488;13.436;2024-03-23T07:14:23;12.90;49.50
11239;DHT22;5677;48.488;13.436;2024-03-23T07:16:50;12.90;49.40
11239;DHT22;5677;48.488;13.436;2024-03-23T07:19:17;12.90;49.30
11239;DHT22;5677;48.488;13.436;2024-03-23T07:21:43;12.90;49.20
11239;DHT22;5677;48.488;13.436;2024-03-23T07:24:10;12.90;49.10
11239;DHT22;5677;48.488;13.436;2024-03-23T07:26:36;13.00;49.00
11239;DHT22;5677;48.488;13.436;2024-03-23T07:29:04;13.00;48.90
11239;DHT22;5677;48.488;13.436;2024-03-23T07:31:31;13.10;49.00
11239;DHT22;5677;48.488;13.436;2024-03-23T07:33:58;13.10;48.80
11239;DHT22;5677;48.488;13.436;2024-03-23T07:36:24;13.10;48.90
11239;DHT22;5677;48.488;13.436;2024-03-23T07:38:51;13.20;48.70
11239;DHT22;5677;48.488;13.436;2024-03-23T07:41:19;13.20;48.70
11239;DHT22;5677;48.488;13.436;2024-03-23T07:43:47;13.20;48.60
11239;DHT22;5677;48.488;13.436;2024-03-23T07:46:14;13.30;48.70
11239;DHT22;5677;48.488;13.436;2024-03-23T07:48:42;13.30;48.70
11239;DHT22;5677;48.488;13.436;2024-03-23T07:51:09;13.30;48.70
11239;DHT22;5677;48.488;13.436;2024-03-23T07:53:37;13.30;48.70
11239;DHT22;5677;48.488;13.436;2024-03-23T07:56:05;13.40;48.60
11239;DHT22;5677;48.488;13.436;2024-03-23T07:58:32;13.40;48.60
11239;DHT22;5677;48.488;13.436;2024-03-23T08:01:04;13.40;48.50
11239;DHT22;5677;48.488;13.436;2024-03-23T08:03:30;13.50;48.50
11239;DHT22;5677;48.488;13.436;2024-03-23T08:06:06;13.50;48.50
11239;DHT22;5677;48.488;13.436;2024-03-23T08:08:32;13.50;48.50
11239;DHT22;5677;48.488;13.436;2024-03-23T08:10:59;13.40;48.50
11239;DHT22;5677;48.488;13.436;2024-03-23T08:13:25;13.40;48.50
11239;DHT22;5677;48.488;13.436;2024-03-23T08:15:52;13.40;48.50
11239;DHT22;5677;48.488;13.436;2024-03-23T08:18:17;13.40;48.60
11239;DHT22;5677;48.488;13.436;2024-03-23T08:20:44;13.50;48.60
11239;DHT22;5677;48.488;13.436;2024-03-23T08:23:11;13.50;48.50
11239;DHT22;5677;48.488;13.436;2024-03-23T08:25:38;13.50;48.40
11239;DHT22;5677;48.488;13.436;2024-03-23T08:28:04;13.50;48.40
11239;DHT22;5677;48.488;13.436;2024-03-23T08:30:35;13.50;48.50
11239;DHT22;5677;48.488;13.436;2024-03-23T08:33:00;13.50;48.40
11239;DHT22;5677;48.488;13.436;2024-03-23T08:35:27;13.50;48.30
11239;DHT22;5677;48.488;13.436;2024-03-23T08:37:53;13.60;48.20
11239;DHT22;5677;48.488;13.436;2024-03-23T08:40:21;13.60;48.20
11239;DHT22;5677;48.488;13.436;2024-03-23T08:42:47;13.60;48.10
11239;DHT22;5677;48.488;13.436;2024-03-23T08:45:14;13.60;48.00
11239;DHT22;5677;48.488;13.436;2024-03-23T08:47:40;13.60;48.10
11239;DHT22;5677;48.488;13.436;2024-03-23T08:50:07;13.50;48.20
11239;DHT22;5677;48.488;13.436;2024-03-23T08:52:33;13.50;48.30
11239;DHT22;5677;48.488;13.436;2024-03-23T08:55:00;13.50;48.40
11239;DHT22;5677;48.488;13.436;2024-03-23T08:57:28;13.40;48.50
11239;DHT22;5677;48.488;13.436;2024-03-23T08:59:54;13.40;48.60
11239;DHT22;5677;48.488;13.436;2024-03-23T09:02:20;13.30;48.70
11239;DHT22;5677;48.488;13.436;2024-03-23T09:04:47;13.30;48.80
11239;DHT22;5677;48.488;13.436;2024-03-23T09:07:13;13.30;48.90
11239;DHT22;5677;48.488;13.436;2024-03-23T09:09:39;13.20;48.90
11239;DHT22;5677;48.488;13.436;2024-03-23T09:12:06;13.20;48.90
11239;DHT22;5677;48.488;13.436;2024-03-23T09:14:34;13.20;48.90
11239;DHT22;5677;48.488;13.436;2024-03-23T09:17:00;13.10;49.10
11239;DHT22;5677;48.488;13.436;2024-03-23T09:19:28;13.10;49.20
11239;DHT22;5677;48.488;13.436;2024-03-23T09:21:53;13.10;49.20
11239;DHT22;5677;48.488;13.436;2024-03-23T09:24:20;13.10;49.30
11239;DHT22;5677;48.488;13.436;2024-03-23T09:26:46;13.00;49.40
11239;DHT22;5677;48.488;13.436;2024-03-23T09:29:13;13.00;49.50
11239;DHT22;5677;48.488;13.436;2024-03-23T09:31:40;13.00;49.50
11239;DHT22;5677;48.488;13.436;2024-03-23T09:34:07;13.00;49.60
11239;DHT22;5677;48.488;13.436;2024-03-23T09:36:33;13.00;49.60
11239;DHT22;5677;48.488;13.436;2024-03-23T09:38:59;13.00;49.70
11239;DHT22;5677;48.488;13.436;2024-03-23T09:41:25;13.00;49.80
11239;DHT22;5677;48.488;13.436;2024-03-23T09:43:52;12.90;49.90
11239;DHT22;5677;48.488;13.436;2024-03-23T09:46:19;13.00;49.90
11239;DHT22;5677;48.488;13.436;2024-03-23T09:48:48;12.90;49.90
11239;DHT22;5677;48.488;13.436;2024-03-23T09:51:13;12.90;50.00
11239;DHT22;5677;48.488;13.436;2024-03-23T09:53:40;12.90;50.10
11239;DHT22;5677;48.488;13.436;2024-03-23T09:56:07;12.90;50.20
11239;DHT22;5677;48.488;13.436;2024-03-23T09:58:34;12.90;50.10
11239;DHT22;5677;48.488;13.436;2024-03-23T10:01:01;12.90;50.20
11239;DHT22;5677;48.488;13.436;2024-03-23T10:03:28;12.90;50.20
11239;DHT22;5677;48.488;13.436;2024-03-23T10:06:02;12.90;50.20
11239;DHT22;5677;48.488;13.436;2024-03-23T10:08:30;12.90;50.30
11239;DHT22;5677;48.488;13.436;2024-03-23T10:10:56;12.90;50.20
11239;DHT22;5677;48.488;13.436;2024-03-23T10:13:27;12.90;50.20
11239;DHT22;5677;48.488;13.436;2024-03-23T10:15:55;12.90;50.30
11239;DHT22;5677;48.488;13.436;2024-03-23T10:18:24;12.90;50.30
11239;DHT22;5677;48.488;13.436;2024-03-23T10:21:09;12.90;50.40
11239;DHT22;5677;48.488;13.436;2024-03-23T10:23:37;12.80;50.20
11239;DHT22;5677;48.488;13.436;2024-03-23T10:26:13;12.80;50.30
11239;DHT22;5677;48.488;13.436;2024-03-23T10:28:54;12.80;50.30
11239;DHT22;5677;48.488;13.436;2024-03-23T10:31:20;12.80;50.30
11239;DHT22;5677;48.488;13.436;2024-03-23T10:33:48;12.80;50.30
11239;DHT22;5677;48.488;13.436;2024-03-23T10:36:15;12.80;50.40
11239;DHT22;5677;48.488;13.436;2024-03-23T10:38:43;12.80;50.40
11239;DHT22;5677;48.488;13.436;2024-03-23T10:41:10;12.80;50.40
11239;DHT22;5677;48.488;13.436;2024-03-23T10:43:38;12.70;50.30
11239;DHT22;5677;48.488;13.436;2024-03-23T10:46:04;12.80;50.90
11239;DHT22;5677;48.488;13.436;2024-03-23T10:48:32;12.70;50.30
11239;DHT22;5677;48.488;13.436;2024-03-23T10:50:58;12.80;50.30
11239;DHT22;5677;48.488;13.436;2024-03-23T10:53:27;12.70;50.30
11239;DHT22;5677;48.488;13.436;2024-03-23T10:55:55;12.70;50.20
11239;DHT22;5677;48.488;13.436;2024-03-23T10:58:26;12.70;50.30
11239;DHT22;5677;48.488;13.436;2024-03-23T11:00:53;12.70;50.30
11239;DHT22;5677;48.488;13.436;2024-03-23T11:03:33;12.70;50.40
11239;DHT22;5677;48.488;13.436;2024-03-23T11:06:00;12.70;50.30
11239;DHT22;5677;48.488;13.436;2024-03-23T11:08:32;12.70;50.30
11239;DHT22;5677;48.488;13.436;2024-03-23T11:11:19;12.70;50.30
11239;DHT22;5677;48.488;13.436;2024-03-23T11:13:48;12.70;50.30
11239;DHT22;5677;48.488;13.436;2024-03-23T11:16:15;12.70;50.20
11239;DHT22;5677;48.488;13.436;2024-03-23T11:18:43;12.70;50.20
11239;DHT22;5677;48.488;13.436;2024-03-23T11:21:09;12.70;50.30
11239;DHT22;5677;48.488;13.436;2024-03-23T11:23:37;12.70;50.30
11239;DHT22;5677;48.488;13.436;2024-03-23T11:26:07;12.70;50.40
11239;DHT22;5677;48.488;13.436;2024-03-23T11:28:34;12.70;50.30
11239;DHT22;5677;48.488;13.436;2024-03-23T11:31:00;12.70;50.30
11239;DHT22;5677;48.488;13.436;2024-03-23T11:33:27;12.70;50.30
11239;DHT22;5677;48.488;13.436;2024-03-23T11:35:53;12.70;50.30
11239;DHT22;5677;48.488;13.436;2024-03-23T11:38:20;12.70;50.30
11239;DHT22;5677;48.488;13.436;2024-03-23T11:40:48;12.70;50.30
11239;DHT22;5677;48.488;13.436;2024-03-23T11:43:16;12.70;50.30
11239;DHT22;5677;48.488;13.436;2024-03-23T11:45:43;12.70;50.30
11239;DHT22;5677;48.488;13.436;2024-03-23T11:48:11;12.70;50.40
11239;DHT22;5677;48.488;13.436;2024-03-23T11:50:39;12.70;50.40
11239;DHT22;5677;48.488;13.436;2024-03-23T11:53:13;12.70;50.40
11239;DHT22;5677;48.488;13.436;2024-03-23T11:55:45;12.70;50.40
11239;DHT22;5677;48.488;13.436;2024-03-23T11:58:14;12.70;50.30
11239;DHT22;5677;48.488;13.436;2024-03-23T12:00:40;12.70;50.40
11239;DHT22;5677;48.488;13.436;2024-03-23T12:03:07;12.70;50.30
11239;DHT22;5677;48.488;13.436;2024-03-23T12:05:34;12.70;50.40
11239;DHT22;5677;48.488;13.436;2024-03-23T12:08:21;12.70;50.40
11239;DHT22;5677;48.488;13.436;2024-03-23T12:10:49;12.70;50.50
11239;DHT22;5677;48.488;13.436;2024-03-23T12:13:19;12.60;50.40
11239;DHT22;5677;48.488;13.436;2024-03-23T12:15:45;12.70;50.50
11239;DHT22;5677;48.488;13.436;2024-03-23T12:18:13;12.60;50.50
11239;DHT22;5677;48.488;13.436;2024-03-23T12:20:39;12.70;50.50
11239;DHT22;5677;48.488;13.436;2024-03-23T12:23:07;12.70;50.50
11239;DHT22;5677;48.488;13.436;2024-03-23T12:25:34;12.70;50.50
11239;DHT22;5677;48.488;13.436;2024-03-23T12:28:02;12.70;50.50
11239;DHT22;5677;48.488;13.436;2024-03-23T12:30:29;12.70;50.40
11239;DHT22;5677;48.488;13.436;2024-03-23T12:32:56;12.70;50.40
11239;DHT22;5677;48.488;13.436;2024-03-23T12:35:22;12.60;50.20
11239;DHT22;5677;48.488;13.436;2024-03-23T12:37:49;12.70;50.40
11239;DHT22;5677;48.488;13.436;2024-03-23T12:40:14;12.70;50.30
11239;DHT22;5677;48.488;13.436;2024-03-23T12:42:41;12.70;50.30
11239;DHT22;5677;48.488;13.436;2024-03-23T12:45:08;12.70;50.30
11239;DHT22;5677;48.488;13.436;2024-03-23T12:47:36;12.70;50.30
11239;DHT22;5677;48.488;13.436;2024-03-23T12:50:02;12.70;50.20
11239;DHT22;5677;48.488;13.436;2024-03-23T12:52:29;12.70;50.20
11239;DHT22;5677;48.488;13.436;2024-03-23T12:54:55;12.70;50.20
11239;DHT22;5677;48.488;13.436;2024-03-23T12:57:23;12.70;50.20
11239;DHT22;5677;48.488;13.436;2024-03-23T12:59:50;12.70;50.20
11239;DHT22;5677;48.488;13.436;2024-03-23T13:02:18;12.70;50.20
11239;DHT22;5677;48.488;13.436;2024-03-23T13:04:46;12.70;50.20
11239;DHT22;5677;48.488;13.436;2024-03-23T13:07:13;12.70;50.20
11239;DHT22;5677;48.488;13.436;2024-03-23T13:09:39;12.70;50.20
11239;DHT22;5677;48.488;13.436;2024-03-23T13:12:06;12.70;50.20
11239;DHT22;5677;48.488;13.436;2024-03-23T13:14:32;12.70;50.20
11239;DHT22;5677;48.488;13.436;2024-03-23T13:16:59;12.70;50.20
11239;DHT22;5677;48.488;13.436;2024-03-23T13:19:25;12.70;50.20
11239;DHT22;5677;48.488;13.436;2024-03-23T13:21:54;12.70;50.10
11239;DHT22;5677;48.488;13.436;2024-03-23T13:24:22;12.70;50.10
11239;DHT22;5677;48.488;13.436;2024-03-23T13:26:50;12.70;50.00
11239;DHT22;5677;48.488;13.436;2024-03-23T13:29:16;12.70;50.00
11239;DHT22;5677;48.488;13.436;2024-03-23T13:31:42;12.70;50.00
11239;DHT22;5677;48.488;13.436;2024-03-23T13:34:08;12.70;50.00
11239;DHT22;5677;48.488;13.436;2024-03-23T13:36:35;12.70;50.00
11239;DHT22;5677;48.488;13.436;2024-03-23T13:39:02;12.70;50.00
11239;DHT22;5677;48.488;13.436;2024-03-23T13:41:31;12.70;50.00
11239;DHT22;5677;48.488;13.436;2024-03-23T13:43:57;12.70;50.00
11239;DHT22;5677;48.488;13.436;2024-03-23T13:46:24;12.70;50.00
11239;DHT22;5677;48.488;13.436;2024-03-23T13:48:50;12.70;50.10
11239;DHT22;5677;48.488;13.436;2024-03-23T13:51:23;12.70;50.00
11239;DHT22;5677;48.488;13.436;2024-03-23T13:53:50;12.70;50.10
11239;DHT22;5677;48.488;13.436;2024-03-23T13:56:18;12.70;50.00
11239;DHT22;5677;48.488;13.436;2024-03-23T13:58:43;12.70;50.00
11239;DHT22;5677;48.488;13.436;2024-03-23T14:01:13;12.60;50.00
11239;DHT22;5677;48.488;13.436;2024-03-23T14:03:39;12.60;50.10
11239;DHT22;5677;48.488;13.436;2024-03-23T14:06:06;12.60;50.10
11239;DHT22;5677;48.488;13.436;2024-03-23T14:08:34;12.60;50.10
11239;DHT22;5677;48.488;13.436;2024-03-23T14:11:02;12.60;50.00
11239;DHT22;5677;48.488;13.436;2024-03-23T14:13:30;12.60;50.70
11239;DHT22;5677;48.488;13.436;2024-03-23T14:15:57;12.60;50.00
11239;DHT22;5677;48.488;13.436;2024-03-23T14:18:23;12.60;50.00
11239;DHT22;5677;48.488;13.436;2024-03-23T14:20:51;12.60;50.00
11239;DHT22;5677;48.488;13.436;2024-03-23T14:23:17;12.60;50.10
11239;DHT22;5677;48.488;13.436;2024-03-23T14:25:44;12.60;50.10
11239;DHT22;5677;48.488;13.436;2024-03-23T14:28:10;12.60;50.00
11239;DHT22;5677;48.488;13.436;2024-03-23T14:30:42;12.60;50.00
11239;DHT22;5677;48.488;13.436;2024-03-23T14:33:08;12.60;50.00
11239;DHT22;5677;48.488;13.436;2024-03-23T14:35:35;12.60;49.90
11239;DHT22;5677;48.488;13.436;2024-03-23T14:38:01;12.60;49.90
11239;DHT22;5677;48.488;13.436;2024-03-23T14:40:28;12.60;49.90
11239;DHT22;5677;48.488;13.436;2024-03-23T14:42:54;12.60;50.00
11239;DHT22;5677;48.488;13.436;2024-03-23T14:45:21;12.60;50.10
11239;DHT22;5677;48.488;13.436;2024-03-23T14:47:48;12.60;50.10
11239;DHT22;5677;48.488;13.436;2024-03-23T14:50:15;12.60;50.10
11239;DHT22;5677;48.488;13.436;2024-03-23T14:52:44;12.60;50.10
11239;DHT22;5677;48.488;13.436;2024-03-23T14:55:10;12.60;50.10
11239;DHT22;5677;48.488;13.436;2024-03-23T14:57:36;12.60;50.10
11239;DHT22;5677;48.488;13.436;2024-03-23T15:00:06;12.60;50.20
11239;DHT22;5677;48.488;13.436;2024-03-23T15:02:33;12.50;50.20
11239;DHT22;5677;48.488;13.436;2024-03-23T15:05:01;12.60;50.10
11239;DHT22;5677;48.488;13.436;2024-03-23T15:07:29;12.50;50.10
11239;DHT22;5677;48.488;13.436;2024-03-23T15:09:56;12.50;50.00
11239;DHT22;5677;48.488;13.436;2024-03-23T15:12:21;12.50;50.10
11239;DHT22;5677;48.488;13.436;2024-03-23T15:14:48;12.50;50.10
11239;DHT22;5677;48.488;13.436;2024-03-23T15:17:14;12.50;50.20
11239;DHT22;5677;48.488;13.436;2024-03-23T15:19:41;12.50;50.20
11239;DHT22;5677;48.488;13.436;2024-03-23T15:22:09;12.50;50.10
11239;DHT22;5677;48.488;13.436;2024-03-23T15:24:36;12.50;50.10
11239;DHT22;5677;48.488;13.436;2024-03-23T15:27:02;12.50;50.10
11239;DHT22;5677;48.488;13.436;2024-03-23T15:29:29;12.50;50.20
11239;DHT22;5677;48.488;13.436;2024-03-23T15:31:55;12.50;50.20
11239;DHT22;5677;48.488;13.436;2024-03-23T15:34:22;12.50;50.20
11239;DHT22;5677;48.488;13.436;2024-03-23T15:36:48;12.50;50.20
11239;DHT22;5677;48.488;13.436;2024-03-23T15:39:17;12.50;50.20
11239;DHT22;5677;48.488;13.436;2024-03-23T15:41:44;12.50;50.20
11239;DHT22;5677;48.488;13.436;2024-03-23T15:44:11;12.50;50.20
11239;DHT22;5677;48.488;13.436;2024-03-23T15:46:37;12.50;50.20
11239;DHT22;5677;48.488;13.436;2024-03-23T15:49:04;12.40;50.10
11239;DHT22;5677;48.488;13.436;2024-03-23T15:51:30;12.40;50.20
11239;DHT22;5677;48.488;13.436;2024-03-23T15:54:00;12.40;50.20
11239;DHT22;5677;48.488;13.436;2024-03-23T15:56:29;12.40;50.10
11239;DHT22;5677;48.488;13.436;2024-03-23T15:58:55;12.40;50.10
11239;DHT22;5677;48.488;13.436;2024-03-23T16:01:21;12.40;50.10
11239;DHT22;5677;48.488;13.436;2024-03-23T16:03:50;12.40;50.20
11239;DHT22;5677;48.488;13.436;2024-03-23T16:06:15;12.40;50.20
11239;DHT22;5677;48.488;13.436;2024-03-23T16:08:42;12.40;50.20
11239;DHT22;5677;48.488;13.436;2024-03-23T16:11:09;12.40;50.20
11239;DHT22;5677;48.488;13.436;2024-03-23T16:13:37;12.40;50.20
11239;DHT22;5677;48.488;13.436;2024-03-23T16:16:04;12.40;50.30
11239;DHT22;5677;48.488;13.436;2024-03-23T16:18:32;12.40;50.30
11239;DHT22;5677;48.488;13.436;2024-03-23T16:21:00;12.40;50.30